Time;durP1;ratioP1;P1;durP2;ratioP2;P2;SDS_P1;SDS_P2;PMS_P1;PMS_P2;Temp;Humidity;BMP_temperature;BMP_pressure;BME280_temperature;BME280_humidity;BME280_pressure;Samples;Min_cycle;Max_cycle;Signal;HPM_P1;HPM_P2
2024/01/18 00:00:38;;;;;;;24.95;14.75;;;;;;;;;;5089222;28;20378;-58
2024/01/18 00:03:04;;;;;;;30.60;16.48;;;;;;;;;;5085385;28;20405;-58
2024/01/18 00:05:30;;;;;;;25.73;15.82;;;;;;;;;;5088182;28;20948;-57
2024/01/18 00:07:56;;;;;;;27.23;14.77;;;;;;;;;;5088071;28;20405;-57
2024/01/18 00:10:26;;;;;;;25.92;14.45;;;;;;;;;;5083878;28;20406;-56
2024/01/18 00:12:52;;;;;;;24.27;14.43;;;;;;;;;;5089271;28;20367;-57
2024/01/18 00:15:18;;;;;;;25.27;15.67;;;;;;;;;;5085554;28;20932;-57
2024/01/18 00:17:44;;;;;;;27.25;16.35;;;;;;;;;;5077932;28;20386;-57
2024/01/18 00:20:11;;;;;;;26.45;15.00;;;;;;;;;;5090047;28;20397;-57
2024/01/18 00:22:37;;;;;;;25.70;15.07;;;;;;;;;;5080553;28;20896;-58
2024/01/18 00:25:03;;;;;;;26.38;14.98;;;;;;;;;;5081953;28;20428;-57
2024/01/18 00:27:28;;;;;;;27.10;15.13;;;;;;;;;;5086710;28;20424;-58
2024/01/18 00:29:54;;;;;;;24.90;14.43;;;;;;;;;;5089064;28;20870;-57
2024/01/18 00:32:20;;;;;;;24.90;14.35;;;;;;;;;;5090101;28;20964;-58
2024/01/18 00:34:46;;;;;;;25.70;15.52;;;;;;;;;;5074917;28;20380;-56
2024/01/18 00:37:14;;;;;;;27.27;14.88;;;;;;;;;;5088229;28;20409;-57
2024/01/18 00:39:42;;;;;;;24.75;14.95;;;;;;;;;;5090360;28;20389;-57
2024/01/18 00:42:09;;;;;;;24.13;14.65;;;;;;;;;;5088816;28;20449;-58
2024/01/18 00:44:35;;;;;;;29.63;15.10;;;;;;;;;;5087362;28;20375;-56
2024/01/18 00:47:01;;;;;;;29.75;16.63;;;;;;;;;;5075789;28;20423;-57
2024/01/18 00:49:27;;;;;;;28.70;16.48;;;;;;;;;;5071548;28;20858;-58
2024/01/18 00:51:53;;;;;;;25.50;14.65;;;;;;;;;;5090206;28;20383;-58
2024/01/18 00:54:19;;;;;;;23.25;13.82;;;;;;;;;;5089234;28;20759;-57
2024/01/18 00:56:45;;;;;;;27.33;14.80;;;;;;;;;;5082392;28;20401;-55
2024/01/18 00:59:11;;;;;;;27.40;15.30;;;;;;;;;;5089613;28;20385;-55
2024/01/18 01:01:36;;;;;;;26.17;14.15;;;;;;;;;;5088397;28;20414;-57
2024/01/18 01:04:02;;;;;;;28.45;15.27;;;;;;;;;;5090441;28;20374;-56
2024/01/18 01:06:28;;;;;;;26.63;14.52;;;;;;;;;;5087700;28;20402;-55
2024/01/18 01:08:54;;;;;;;28.15;15.65;;;;;;;;;;5084550;28;20891;-52
2024/01/18 01:11:20;;;;;;;26.30;14.52;;;;;;;;;;5077518;28;20740;-51
2024/01/18 01:13:46;;;;;;;28.25;14.82;;;;;;;;;;5094182;28;20433;-54
2024/01/18 01:16:12;;;;;;;23.77;13.98;;;;;;;;;;5090072;28;20401;-52
2024/01/18 01:18:38;;;;;;;23.92;13.43;;;;;;;;;;5093276;28;20363;-53
2024/01/18 01:21:05;;;;;;;22.40;13.80;;;;;;;;;;5091056;28;20386;-52
2024/01/18 01:23:31;;;;;;;23.70;13.68;;;;;;;;;;5078038;28;20387;-54
2024/01/18 01:25:58;;;;;;;25.55;13.75;;;;;;;;;;5088972;28;20390;-55
2024/01/18 01:28:24;;;;;;;24.15;13.30;;;;;;;;;;5081987;28;20434;-55
2024/01/18 01:30:50;;;;;;;23.77;13.23;;;;;;;;;;5083608;28;20412;-55
2024/01/18 01:33:16;;;;;;;22.52;13.75;;;;;;;;;;5090110;28;20370;-55
2024/01/18 01:35:41;;;;;;;22.58;13.52;;;;;;;;;;5082088;28;20374;-53
2024/01/18 01:38:07;;;;;;;25.70;13.93;;;;;;;;;;5092706;28;20747;-51
2024/01/18 01:40:33;;;;;;;24.10;13.95;;;;;;;;;;5081797;28;20387;-52
2024/01/18 01:42:59;;;;;;;24.63;14.32;;;;;;;;;;5083981;28;20469;-52
2024/01/18 01:45:25;;;;;;;22.05;13.02;;;;;;;;;;5075497;28;20442;-54
2024/01/18 01:47:51;;;;;;;27.02;13.85;;;;;;;;;;5087043;28;20414;-55
2024/01/18 01:50:17;;;;;;;23.45;14.07;;;;;;;;;;5076980;28;20376;-50
2024/01/18 01:52:44;;;;;;;24.80;14.43;;;;;;;;;;5086978;28;20454;-53
2024/01/18 01:55:10;;;;;;;23.90;13.73;;;;;;;;;;5083305;28;20382;-52
2024/01/18 01:57:36;;;;;;;23.93;13.40;;;;;;;;;;5084546;28;20396;-55
2024/01/18 02:00:03;;;;;;;24.95;14.23;;;;;;;;;;5092208;28;20408;-54
2024/01/18 02:02:30;;;;;;;24.50;13.48;;;;;;;;;;5088380;28;20387;-48
2024/01/18 02:04:56;;;;;;;24.00;13.50;;;;;;;;;;5090802;28;20421;-55
2024/01/18 02:07:23;;;;;;;24.60;13.88;;;;;;;;;;5089622;28;20438;-56
2024/01/18 02:09:49;;;;;;;24.38;14.05;;;;;;;;;;5082294;28;20410;-57
2024/01/18 02:12:15;;;;;;;22.23;13.38;;;;;;;;;;5084450;28;20404;-57
2024/01/18 02:14:41;;;;;;;23.60;13.65;;;;;;;;;;5085883;28;20388;-58
2024/01/18 02:17:07;;;;;;;24.20;13.77;;;;;;;;;;5079867;28;20415;-57
2024/01/18 02:19:33;;;;;;;26.23;13.73;;;;;;;;;;5085520;28;20397;-57
2024/01/18 02:22:03;;;;;;;27.38;14.63;;;;;;;;;;5078279;28;20759;-57
2024/01/18 02:24:33;;;;;;;24.77;13.98;;;;;;;;;;5090657;28;20386;-57
2024/01/18 02:26:59;;;;;;;25.52;14.48;;;;;;;;;;5091069;28;20402;-56
2024/01/18 02:29:25;;;;;;;24.90;14.15;;;;;;;;;;5088966;28;20474;-57
2024/01/18 02:31:51;;;;;;;25.65;13.60;;;;;;;;;;5086360;28;20395;-58
2024/01/18 02:34:18;;;;;;;23.02;14.43;;;;;;;;;;5077216;28;20867;-57
2024/01/18 02:36:47;;;;;;;21.75;13.63;;;;;;;;;;5080232;28;20462;-57
2024/01/18 02:39:13;;;;;;;18.92;12.30;;;;;;;;;;5090457;28;20382;-57
2024/01/18 02:41:41;;;;;;;21.70;13.05;;;;;;;;;;5083486;28;20433;-57
2024/01/18 02:44:07;;;;;;;25.75;13.90;;;;;;;;;;5092249;28;20875;-57
2024/01/18 02:46:33;;;;;;;23.05;13.32;;;;;;;;;;5090530;28;20845;-58
2024/01/18 02:48:59;;;;;;;28.83;15.10;;;;;;;;;;5092156;28;20390;-53
2024/01/18 02:51:26;;;;;;;23.83;14.02;;;;;;;;;;5084914;28;20384;-56
2024/01/18 02:53:52;;;;;;;24.42;13.45;;;;;;;;;;5081288;28;20390;-58
2024/01/18 02:56:18;;;;;;;24.13;14.23;;;;;;;;;;5090070;28;20477;-55
2024/01/18 02:58:44;;;;;;;21.77;13.20;;;;;;;;;;5089363;28;20541;-57
2024/01/18 03:01:10;;;;;;;24.70;13.90;;;;;;;;;;5091239;28;20394;-57
2024/01/18 03:03:36;;;;;;;25.57;14.87;;;;;;;;;;5090475;28;20378;-57
2024/01/18 03:06:02;;;;;;;24.23;13.77;;;;;;;;;;5086669;28;20405;-57
2024/01/18 03:08:28;;;;;;;26.27;14.57;;;;;;;;;;5086459;28;20401;-57
2024/01/18 03:10:54;;;;;;;27.45;14.02;;;;;;;;;;5081844;28;20453;-56
2024/01/18 03:13:20;;;;;;;23.85;13.85;;;;;;;;;;5089271;28;20765;-57
2024/01/18 03:15:46;;;;;;;26.27;15.05;;;;;;;;;;5085861;28;20475;-52
2024/01/18 03:18:12;;;;;;;26.48;14.88;;;;;;;;;;5089086;28;20401;-50
2024/01/18 03:20:38;;;;;;;25.92;14.48;;;;;;;;;;5087526;28;20494;-49
2024/01/18 03:23:04;;;;;;;24.13;13.93;;;;;;;;;;5073215;28;20391;-49
2024/01/18 03:25:30;;;;;;;24.35;14.00;;;;;;;;;;5082412;28;20372;-50
2024/01/18 03:27:56;;;;;;;25.45;13.65;;;;;;;;;;5077022;28;20407;-48
2024/01/18 03:30:22;;;;;;;26.83;14.32;;;;;;;;;;5081620;28;20386;-50
2024/01/18 03:32:48;;;;;;;24.42;13.77;;;;;;;;;;5091397;28;20745;-50
2024/01/18 03:35:14;;;;;;;28.17;15.50;;;;;;;;;;5085962;28;20385;-53
2024/01/18 03:37:40;;;;;;;26.50;15.20;;;;;;;;;;5081426;28;20401;-54
2024/01/18 03:40:10;;;;;;;24.73;14.00;;;;;;;;;;5089925;28;20397;-53
2024/01/18 03:42:40;;;;;;;29.08;15.52;;;;;;;;;;5089367;28;20429;-51
2024/01/18 03:45:06;;;;;;;28.23;15.77;;;;;;;;;;5084482;28;20475;-52
2024/01/18 03:47:32;;;;;;;28.20;15.57;;;;;;;;;;5089727;28;20412;-53
2024/01/18 03:49:58;;;;;;;26.58;15.43;;;;;;;;;;5086721;28;20875;-53
2024/01/18 03:52:24;;;;;;;26.35;14.82;;;;;;;;;;5081641;28;20382;-53
2024/01/18 03:54:50;;;;;;;27.90;16.02;;;;;;;;;;5089789;28;20379;-48
2024/01/18 03:57:16;;;;;;;26.65;15.02;;;;;;;;;;5088752;28;20469;-49
2024/01/18 03:59:45;;;;;;;25.42;14.85;;;;;;;;;;5090073;28;20382;-54
2024/01/18 04:02:11;;;;;;;22.25;13.70;;;;;;;;;;5083943;28;20425;-49
2024/01/18 04:04:37;;;;;;;24.92;14.75;;;;;;;;;;5070917;28;20376;-50
2024/01/18 04:07:03;;;;;;;26.60;14.93;;;;;;;;;;5083791;28;20406;-50
2024/01/18 04:09:29;;;;;;;24.63;14.63;;;;;;;;;;5085193;28;20391;-49
2024/01/18 04:11:55;;;;;;;25.15;14.95;;;;;;;;;;5083480;28;20390;-51
2024/01/18 04:14:21;;;;;;;31.48;16.08;;;;;;;;;;5088426;28;20470;-50
2024/01/18 04:16:47;;;;;;;26.08;15.32;;;;;;;;;;5080664;28;20380;-54
2024/01/18 04:19:13;;;;;;;26.23;14.57;;;;;;;;;;5075522;28;20384;-53
2024/01/18 04:21:39;;;;;;;26.23;15.93;;;;;;;;;;5083919;28;20439;-54
2024/01/18 04:24:05;;;;;;;27.07;15.30;;;;;;;;;;5086806;28;20472;-53
2024/01/18 04:26:33;;;;;;;23.33;14.45;;;;;;;;;;5086535;28;20405;-53
2024/01/18 04:29:00;;;;;;;31.42;15.88;;;;;;;;;;5078333;28;20401;-52
2024/01/18 04:31:26;;;;;;;30.50;16.10;;;;;;;;;;5078110;28;20483;-51
2024/01/18 04:33:52;;;;;;;27.30;15.17;;;;;;;;;;5085113;28;20378;-54
2024/01/18 04:36:18;;;;;;;30.17;16.57;;;;;;;;;;5087947;28;20404;-53
2024/01/18 04:38:44;;;;;;;27.07;15.63;;;;;;;;;;5089351;28;20393;-51
2024/01/18 04:41:10;;;;;;;24.43;14.27;;;;;;;;;;5089638;28;20398;-51
2024/01/18 04:43:36;;;;;;;29.17;16.67;;;;;;;;;;5086612;28;20458;-53
2024/01/18 04:46:04;;;;;;;27.50;15.23;;;;;;;;;;5088076;28;20378;-54
2024/01/18 04:48:30;;;;;;;26.70;15.20;;;;;;;;;;5082217;28;20499;-55
2024/01/18 04:50:56;;;;;;;25.83;14.90;;;;;;;;;;5078081;28;20477;-52
2024/01/18 04:53:22;;;;;;;27.87;15.23;;;;;;;;;;5089116;28;20883;-53
2024/01/18 04:55:48;;;;;;;31.23;15.67;;;;;;;;;;5086604;28;20374;-55
2024/01/18 04:58:13;;;;;;;29.38;15.55;;;;;;;;;;5094113;28;20902;-55
2024/01/18 05:00:39;;;;;;;27.20;15.27;;;;;;;;;;5093313;28;20428;-55
2024/01/18 05:03:07;;;;;;;26.00;14.07;;;;;;;;;;5076711;28;20488;-51
2024/01/18 05:05:33;;;;;;;25.40;15.00;;;;;;;;;;5088722;28;20411;-53
2024/01/18 05:07:59;;;;;;;26.98;13.95;;;;;;;;;;5083839;28;20878;-51
2024/01/18 05:10:25;;;;;;;24.73;14.80;;;;;;;;;;5084822;28;20389;-51
2024/01/18 05:12:52;;;;;;;24.83;14.00;;;;;;;;;;5088535;28;20398;-53
2024/01/18 05:15:18;;;;;;;27.27;14.45;;;;;;;;;;5088573;28;20378;-52
2024/01/18 05:17:46;;;;;;;25.10;14.90;;;;;;;;;;5090914;28;20902;-54
2024/01/18 05:20:15;;;;;;;29.00;15.70;;;;;;;;;;5089518;28;20392;-53
2024/01/18 05:22:42;;;;;;;26.63;15.25;;;;;;;;;;5073221;28;20382;-53
2024/01/18 05:25:08;;;;;;;25.80;15.38;;;;;;;;;;5092774;28;20469;-52
2024/01/18 05:27:34;;;;;;;30.92;17.80;;;;;;;;;;5092632;28;20456;-55
2024/01/18 05:30:00;;;;;;;32.35;17.70;;;;;;;;;;5091899;28;20767;-55
2024/01/18 05:32:27;;;;;;;31.00;16.58;;;;;;;;;;5083017;28;20889;-52
2024/01/18 05:34:53;;;;;;;29.77;17.38;;;;;;;;;;5077900;28;20440;-53
2024/01/18 05:37:22;;;;;;;28.60;16.08;;;;;;;;;;5088055;28;20442;-49
2024/01/18 05:39:50;;;;;;;34.47;17.05;;;;;;;;;;5079932;28;20382;-50
2024/01/18 05:42:16;;;;;;;33.83;16.92;;;;;;;;;;5085317;28;20453;-51
2024/01/18 05:44:42;;;;;;;30.67;17.05;;;;;;;;;;5090923;28;20392;-52
2024/01/18 05:47:08;;;;;;;31.90;17.83;;;;;;;;;;5084102;28;20421;-55
2024/01/18 05:49:34;;;;;;;32.40;17.85;;;;;;;;;;5092240;28;20380;-53
2024/01/18 05:52:00;;;;;;;30.98;16.45;;;;;;;;;;5091949;28;20378;-50
2024/01/18 05:54:26;;;;;;;28.60;15.98;;;;;;;;;;5086581;28;20384;-52
2024/01/18 05:56:52;;;;;;;24.77;14.13;;;;;;;;;;5089638;28;20790;-53
2024/01/18 05:59:18;;;;;;;29.48;15.43;;;;;;;;;;5090053;28;20514;-53
2024/01/18 06:01:44;;;;;;;31.73;16.67;;;;;;;;;;5089464;28;20477;-53
2024/01/18 06:04:10;;;;;;;27.30;15.35;;;;;;;;;;5091247;28;20397;-50
2024/01/18 06:06:36;;;;;;;24.95;15.02;;;;;;;;;;5092587;28;20382;-50
2024/01/18 06:09:02;;;;;;;27.38;14.30;;;;;;;;;;5091532;28;20389;-50
2024/01/18 06:11:28;;;;;;;29.08;15.20;;;;;;;;;;5090867;28;20432;-50
2024/01/18 06:13:53;;;;;;;26.98;16.17;;;;;;;;;;5086631;28;20413;-48
2024/01/18 06:16:19;;;;;;;24.63;14.50;;;;;;;;;;5088226;28;20378;-48
2024/01/18 06:18:45;;;;;;;26.25;14.93;;;;;;;;;;5089209;28;20413;-53
2024/01/18 06:21:12;;;;;;;30.58;17.33;;;;;;;;;;5088921;28;20490;-55
2024/01/18 06:23:38;;;;;;;28.73;16.20;;;;;;;;;;5088352;28;20401;-54
2024/01/18 06:26:04;;;;;;;30.03;15.60;;;;;;;;;;5087394;28;20390;-53
2024/01/18 06:28:30;;;;;;;25.88;14.40;;;;;;;;;;5086202;28;20447;-52
2024/01/18 06:30:56;;;;;;;29.67;15.40;;;;;;;;;;5085450;28;20405;-52
2024/01/18 06:33:22;;;;;;;28.02;15.73;;;;;;;;;;5089379;28;20409;-53
2024/01/18 06:35:48;;;;;;;27.55;16.13;;;;;;;;;;5085598;28;20427;-50
2024/01/18 06:38:14;;;;;;;28.02;15.73;;;;;;;;;;5092616;28;20382;-50
2024/01/18 06:40:40;;;;;;;29.95;16.13;;;;;;;;;;5083985;28;20532;-51
2024/01/18 06:43:06;;;;;;;30.02;17.17;;;;;;;;;;5091620;28;20404;-51
2024/01/18 06:45:32;;;;;;;28.00;16.23;;;;;;;;;;5091069;28;20451;-56
2024/01/18 06:47:59;;;;;;;28.35;15.80;;;;;;;;;;5091145;28;20414;-57
2024/01/18 06:50:24;;;;;;;29.20;15.63;;;;;;;;;;5092580;28;20428;-57
2024/01/18 06:52:51;;;;;;;24.98;14.27;;;;;;;;;;5088984;28;21196;-57
2024/01/18 06:55:18;;;;;;;23.43;14.20;;;;;;;;;;5092279;28;20475;-58
2024/01/18 06:57:48;;;;;;;24.48;14.20;;;;;;;;;;5091600;28;20904;-58
2024/01/18 07:00:14;;;;;;;24.05;13.77;;;;;;;;;;5090311;28;20412;-57
2024/01/18 07:02:40;;;;;;;29.55;15.95;;;;;;;;;;5088900;28;20398;-57
2024/01/18 07:05:06;;;;;;;32.03;16.98;;;;;;;;;;5091460;28;20390;-56
2024/01/18 07:07:32;;;;;;;29.50;16.23;;;;;;;;;;5090626;28;20410;-58
2024/01/18 07:09:58;;;;;;;28.88;15.95;;;;;;;;;;5075629;28;20908;-58
2024/01/18 07:12:24;;;;;;;24.98;15.23;;;;;;;;;;5083764;28;20394;-57
2024/01/18 07:14:51;;;;;;;27.10;15.35;;;;;;;;;;5087511;28;20745;-57
2024/01/18 07:17:17;;;;;;;26.33;15.23;;;;;;;;;;5087182;28;21520;-57
2024/01/18 07:19:43;;;;;;;30.88;16.95;;;;;;;;;;5089653;28;20413;-58
2024/01/18 07:22:10;;;;;;;28.85;16.20;;;;;;;;;;5091792;28;20370;-57
2024/01/18 07:24:36;;;;;;;27.63;16.27;;;;;;;;;;5090729;28;20374;-57
2024/01/18 07:27:01;;;;;;;27.92;16.15;;;;;;;;;;5089946;28;20410;-56
2024/01/18 07:29:27;;;;;;;26.00;15.33;;;;;;;;;;5090966;28;20374;-57
2024/01/18 07:31:53;;;;;;;29.37;15.67;;;;;;;;;;5091184;28;20370;-58
2024/01/18 07:34:19;;;;;;;28.07;16.00;;;;;;;;;;5088346;28;20461;-56
2024/01/18 07:36:45;;;;;;;26.10;15.10;;;;;;;;;;5090891;28;20386;-58
2024/01/18 07:39:11;;;;;;;33.20;17.30;;;;;;;;;;5091003;28;20483;-57
2024/01/18 07:41:37;;;;;;;31.77;17.20;;;;;;;;;;5089626;28;20378;-56
2024/01/18 07:44:03;;;;;;;28.57;16.50;;;;;;;;;;5090052;28;20390;-55
2024/01/18 07:46:29;;;;;;;31.77;16.58;;;;;;;;;;5090606;28;20477;-56
2024/01/18 07:48:55;;;;;;;31.90;17.30;;;;;;;;;;5088650;28;20955;-55
2024/01/18 07:51:21;;;;;;;31.30;18.08;;;;;;;;;;5090714;28;20362;-57
2024/01/18 07:53:48;;;;;;;34.95;18.27;;;;;;;;;;5089482;28;20378;-56
2024/01/18 07:56:14;;;;;;;35.47;19.63;;;;;;;;;;5080029;28;20380;-51
2024/01/18 07:58:43;;;;;;;30.55;17.63;;;;;;;;;;5087295;28;20405;-50
2024/01/18 08:01:09;;;;;;;32.20;17.27;;;;;;;;;;5090391;28;20486;-53
2024/01/18 08:03:35;;;;;;;29.83;17.30;;;;;;;;;;5088537;28;20379;-52
2024/01/18 08:06:01;;;;;;;31.17;18.30;;;;;;;;;;5088892;28;20389;-53
2024/01/18 08:08:27;;;;;;;34.47;18.60;;;;;;;;;;5085648;28;20441;-51
2024/01/18 08:10:52;;;;;;;28.47;16.13;;;;;;;;;;5090351;28;20855;-52
2024/01/18 08:13:18;;;;;;;31.57;16.30;;;;;;;;;;5087222;28;20772;-51
2024/01/18 08:15:45;;;;;;;27.70;16.23;;;;;;;;;;5090381;28;20813;-53
2024/01/18 08:18:13;;;;;;;25.70;15.38;;;;;;;;;;5090348;28;20409;-51
2024/01/18 08:20:39;;;;;;;28.10;16.98;;;;;;;;;;5089481;28;20383;-55
2024/01/18 08:23:05;;;;;;;29.67;17.17;;;;;;;;;;5090028;28;20386;-53
2024/01/18 08:25:31;;;;;;;26.65;15.70;;;;;;;;;;5089943;28;20378;-54
2024/01/18 08:27:57;;;;;;;29.85;17.27;;;;;;;;;;5070639;28;20410;-53
2024/01/18 08:30:23;;;;;;;32.03;18.60;;;;;;;;;;5088554;28;20405;-55
2024/01/18 08:32:49;;;;;;;36.60;19.83;;;;;;;;;;5089868;28;20410;-52
2024/01/18 08:35:15;;;;;;;35.90;19.35;;;;;;;;;;5090108;28;20381;-51
2024/01/18 08:37:41;;;;;;;33.05;18.20;;;;;;;;;;5090082;28;20385;-51
2024/01/18 08:40:08;;;;;;;33.35;19.35;;;;;;;;;;5089537;28;20378;-53
2024/01/18 08:42:35;;;;;;;33.80;19.97;;;;;;;;;;5089184;28;20499;-54
2024/01/18 08:45:01;;;;;;;33.53;18.90;;;;;;;;;;5087874;28;20432;-52
2024/01/18 08:47:27;;;;;;;34.73;20.20;;;;;;;;;;5089733;28;20406;-53
2024/01/18 08:49:53;;;;;;;38.90;19.83;;;;;;;;;;5089938;28;20397;-53
2024/01/18 08:52:19;;;;;;;35.13;18.95;;;;;;;;;;5089955;28;20374;-54
2024/01/18 08:54:45;;;;;;;35.47;19.80;;;;;;;;;;5089237;28;20370;-53
2024/01/18 08:57:11;;;;;;;32.60;18.63;;;;;;;;;;5089057;28;20401;-55
2024/01/18 08:59:37;;;;;;;31.17;17.27;;;;;;;;;;5081494;28;20376;-50
2024/01/18 09:02:03;;;;;;;33.10;18.42;;;;;;;;;;5086002;28;20531;-54
2024/01/18 09:04:29;;;;;;;31.60;17.75;;;;;;;;;;5089619;28;20449;-57
2024/01/18 09:06:55;;;;;;;31.02;17.70;;;;;;;;;;5089323;28;20409;-56
2024/01/18 09:09:21;;;;;;;32.25;17.83;;;;;;;;;;5089681;28;20370;-55
2024/01/18 09:11:47;;;;;;;30.67;18.13;;;;;;;;;;5088876;28;20401;-57
2024/01/18 09:14:13;;;;;;;34.10;18.40;;;;;;;;;;5089244;28;20417;-58
2024/01/18 09:16:39;;;;;;;35.67;19.83;;;;;;;;;;5087766;28;20786;-58
2024/01/18 09:19:05;;;;;;;29.98;18.35;;;;;;;;;;5087027;28;20413;-57
2024/01/18 09:21:31;;;;;;;37.75;20.00;;;;;;;;;;5089702;28;20378;-58
2024/01/18 09:23:57;;;;;;;35.42;19.65;;;;;;;;;;5086666;28;20844;-57
2024/01/18 09:26:23;;;;;;;33.10;19.08;;;;;;;;;;5089398;28;20728;-57
2024/01/18 09:28:49;;;;;;;40.88;21.58;;;;;;;;;;5088253;28;20417;-57
2024/01/18 09:31:15;;;;;;;36.00;19.92;;;;;;;;;;5084651;28;20397;-56
2024/01/18 09:33:41;;;;;;;34.58;19.00;;;;;;;;;;5093135;28;20931;-58
2024/01/18 09:36:07;;;;;;;37.28;20.02;;;;;;;;;;5093051;28;20366;-57
2024/01/18 09:38:36;;;;;;;30.20;17.42;;;;;;;;;;5093344;28;20389;-57
2024/01/18 09:41:11;;;;;;;33.00;18.20;;;;;;;;;;5092903;28;20461;-57
2024/01/18 09:43:39;;;;;;;31.85;18.80;;;;;;;;;;5091139;28;20404;-54
2024/01/18 09:46:06;;;;;;;35.42;19.58;;;;;;;;;;5079850;28;20402;-56
2024/01/18 09:48:33;;;;;;;32.38;18.23;;;;;;;;;;5079341;28;20408;-57
2024/01/18 09:51:00;;;;;;;32.28;18.08;;;;;;;;;;5090130;28;20404;-57
2024/01/18 09:53:26;;;;;;;37.03;19.40;;;;;;;;;;5090020;28;20394;-55
2024/01/18 09:55:53;;;;;;;32.88;18.20;;;;;;;;;;5092199;28;20464;-58
2024/01/18 09:58:19;;;;;;;32.90;17.57;;;;;;;;;;5092374;28;20412;-56
2024/01/18 10:00:53;;;;;;;29.30;16.63;;;;;;;;;;5092271;28;20417;-55
2024/01/18 10:03:19;;;;;;;35.30;19.50;;;;;;;;;;5083487;28;20403;-57
2024/01/18 10:05:46;;;;;;;33.20;18.35;;;;;;;;;;5092557;28;20382;-57
2024/01/18 10:08:12;;;;;;;33.03;18.77;;;;;;;;;;5074185;28;20432;-58
2024/01/18 10:10:38;;;;;;;30.83;18.02;;;;;;;;;;5085362;28;20422;-58
2024/01/18 10:13:04;;;;;;;33.25;18.02;;;;;;;;;;5090239;28;20516;-57
2024/01/18 10:15:34;;;;;;;33.95;18.17;;;;;;;;;;5082532;28;20461;-58
2024/01/18 10:18:04;;;;;;;30.75;17.92;;;;;;;;;;5091086;28;20439;-56
2024/01/18 10:20:30;;;;;;;33.28;17.92;;;;;;;;;;5087626;28;20391;-57
2024/01/18 10:22:56;;;;;;;32.72;18.48;;;;;;;;;;5088851;28;20474;-56
2024/01/18 10:25:32;;;;;;;35.57;19.57;;;;;;;;;;5091111;28;20426;-58
2024/01/18 10:27:58;;;;;;;32.22;18.45;;;;;;;;;;5090134;28;20402;-58
2024/01/18 10:30:24;;;;;;;32.38;18.48;;;;;;;;;;5090686;28;20410;-57
2024/01/18 10:32:51;;;;;;;34.10;18.43;;;;;;;;;;5091838;28;20468;-57
2024/01/18 10:35:24;;;;;;;31.50;18.10;;;;;;;;;;5085561;28;20716;-57
2024/01/18 10:38:03;;;;;;;31.05;18.10;;;;;;;;;;5092118;28;20378;-58
2024/01/18 10:40:36;;;;;;;37.40;18.10;;;;;;;;;;5091827;28;20378;-58
2024/01/18 10:43:03;;;;;;;32.88;17.90;;;;;;;;;;5090484;28;20466;-57
2024/01/18 10:45:30;;;;;;;32.03;18.08;;;;;;;;;;5091352;28;20378;-57
2024/01/18 10:47:56;;;;;;;35.23;19.67;;;;;;;;;;5090213;28;20857;-57
2024/01/18 10:50:22;;;;;;;33.42;18.50;;;;;;;;;;5090954;28;20397;-57
2024/01/18 10:52:48;;;;;;;34.08;18.50;;;;;;;;;;5081996;28;20879;-58
2024/01/18 10:55:14;;;;;;;29.05;17.23;;;;;;;;;;5091116;28;20489;-58
2024/01/18 10:57:41;;;;;;;30.30;17.55;;;;;;;;;;5091427;28;20378;-57
2024/01/18 11:00:08;;;;;;;28.80;16.88;;;;;;;;;;5091435;28;20458;-56
2024/01/18 11:02:39;;;;;;;31.33;17.45;;;;;;;;;;5091641;28;20447;-58
2024/01/18 11:05:06;;;;;;;27.55;16.73;;;;;;;;;;5091213;28;20417;-58
2024/01/18 11:07:33;;;;;;;31.10;17.53;;;;;;;;;;5091388;28;20431;-58
2024/01/18 11:09:59;;;;;;;31.80;17.45;;;;;;;;;;5085683;28;20443;-56
2024/01/18 11:12:26;;;;;;;28.13;16.80;;;;;;;;;;5090443;28;20763;-55
2024/01/18 11:14:52;;;;;;;29.83;17.58;;;;;;;;;;5090499;28;20895;-57
2024/01/18 11:17:19;;;;;;;28.07;16.53;;;;;;;;;;5087762;28;20415;-56
2024/01/18 11:19:45;;;;;;;33.03;18.17;;;;;;;;;;5090997;28;20393;-57
2024/01/18 11:22:22;;;;;;;28.80;17.17;;;;;;;;;;5091176;28;20386;-58
2024/01/18 11:24:47;;;;;;;32.13;18.02;;;;;;;;;;5091165;28;20371;-56
2024/01/18 11:27:21;;;;;;;32.78;18.20;;;;;;;;;;5091417;28;20409;-57
2024/01/18 11:29:47;;;;;;;32.85;19.15;;;;;;;;;;5087211;28;20496;-57
2024/01/18 11:32:14;;;;;;;34.15;18.83;;;;;;;;;;5089025;28;20851;-57
2024/01/18 11:34:40;;;;;;;33.88;18.58;;;;;;;;;;5090000;28;20370;-58
2024/01/18 11:37:13;;;;;;;32.13;18.60;;;;;;;;;;5086898;28;20401;-57
2024/01/18 11:39:48;;;;;;;29.45;17.73;;;;;;;;;;5090926;28;20732;-57
2024/01/18 11:42:18;;;;;;;30.83;17.98;;;;;;;;;;5090917;28;20523;-58
2024/01/18 11:45:03;;;;;;;33.35;18.63;;;;;;;;;;5089903;28;20398;-57
2024/01/18 11:47:30;;;;;;;35.58;18.98;;;;;;;;;;5090557;28;20911;-57
2024/01/18 11:49:56;;;;;;;31.37;17.70;;;;;;;;;;5090599;28;20370;-58
2024/01/18 11:52:23;;;;;;;32.53;18.70;;;;;;;;;;5090141;28;20389;-55
2024/01/18 11:54:54;;;;;;;35.28;19.23;;;;;;;;;;5087783;28;20862;-57
2024/01/18 11:57:21;;;;;;;35.05;19.65;;;;;;;;;;5088923;28;20401;-57
2024/01/18 11:59:47;;;;;;;33.45;17.90;;;;;;;;;;5089994;28;20489;-53
2024/01/18 12:02:13;;;;;;;32.42;18.58;;;;;;;;;;5090440;28;20524;-58
2024/01/18 12:04:39;;;;;;;33.85;18.20;;;;;;;;;;5089852;28;21282;-58
2024/01/18 12:07:06;;;;;;;30.13;17.73;;;;;;;;;;5090404;28;20422;-57
2024/01/18 12:09:33;;;;;;;36.17;18.42;;;;;;;;;;5088621;28;20401;-57
2024/01/18 12:11:59;;;;;;;30.13;18.40;;;;;;;;;;5090237;28;20386;-56
2024/01/18 12:14:26;;;;;;;31.83;17.38;;;;;;;;;;5088486;28;20402;-56
2024/01/18 12:16:53;;;;;;;31.80;19.13;;;;;;;;;;5090252;28;20791;-58
2024/01/18 12:19:35;;;;;;;32.92;17.83;;;;;;;;;;5089718;28;20370;-58
2024/01/18 12:22:02;;;;;;;31.30;17.45;;;;;;;;;;5090513;28;20378;-57
2024/01/18 12:24:28;;;;;;;32.50;17.42;;;;;;;;;;5089615;28;20449;-58
2024/01/18 12:26:54;;;;;;;31.05;17.63;;;;;;;;;;5080451;28;20397;-57
2024/01/18 12:29:22;;;;;;;27.20;15.93;;;;;;;;;;5089785;28;20381;-57
2024/01/18 12:31:48;;;;;;;25.17;15.40;;;;;;;;;;5089702;28;20396;-58
2024/01/18 12:34:14;;;;;;;28.33;15.75;;;;;;;;;;5087805;28;20489;-52
2024/01/18 12:36:40;;;;;;;24.95;16.08;;;;;;;;;;5090149;28;20382;-57
2024/01/18 12:39:06;;;;;;;28.47;16.10;;;;;;;;;;5087854;28;20449;-57
2024/01/18 12:41:32;;;;;;;27.57;15.40;;;;;;;;;;5087733;28;20405;-58
2024/01/18 12:44:07;;;;;;;25.23;15.63;;;;;;;;;;5089291;28;20378;-59
2024/01/18 12:46:36;;;;;;;28.00;15.43;;;;;;;;;;5089315;28;20398;-58
2024/01/18 12:49:03;;;;;;;26.73;14.63;;;;;;;;;;5088886;28;20405;-58
2024/01/18 12:51:29;;;;;;;26.53;15.53;;;;;;;;;;5089305;28;20370;-58
2024/01/18 12:53:55;;;;;;;27.67;15.10;;;;;;;;;;5086870;28;20461;-59
2024/01/18 12:56:21;;;;;;;26.30;14.30;;;;;;;;;;5087091;28;20480;-59
2024/01/18 12:58:48;;;;;;;24.00;14.60;;;;;;;;;;5069498;28;20393;-59
2024/01/18 13:01:33;;;;;;;23.55;13.65;;;;;;;;;;5083964;28;20802;-59
2024/01/18 13:04:17;;;;;;;27.85;14.30;;;;;;;;;;5088732;28;20475;-59
2024/01/18 13:06:44;;;;;;;26.02;14.15;;;;;;;;;;5087921;28;20373;-57
2024/01/18 13:09:11;;;;;;;22.05;13.43;;;;;;;;;;5093708;28;20976;-58
2024/01/18 13:11:37;;;;;;;23.02;13.73;;;;;;;;;;5093060;28;20766;-57
2024/01/18 13:14:07;;;;;;;25.77;14.80;;;;;;;;;;5091932;28;20417;-58
2024/01/18 13:16:34;;;;;;;26.65;14.75;;;;;;;;;;5088861;28;20478;-58
2024/01/18 13:19:04;;;;;;;24.27;15.48;;;;;;;;;;5090309;28;20370;-57
2024/01/18 13:21:30;;;;;;;26.38;15.70;;;;;;;;;;5092404;28;20382;-57
2024/01/18 13:23:57;;;;;;;25.75;15.07;;;;;;;;;;5093090;28;20374;-56
2024/01/18 13:26:23;;;;;;;31.17;17.55;;;;;;;;;;5093299;28;20831;-58
2024/01/18 13:28:49;;;;;;;31.75;16.35;;;;;;;;;;5093415;28;20401;-57
2024/01/18 13:31:15;;;;;;;30.45;17.42;;;;;;;;;;5088153;28;20420;-57
2024/01/18 13:33:41;;;;;;;27.08;15.75;;;;;;;;;;5090511;28;20393;-59
2024/01/18 13:36:09;;;;;;;31.85;18.08;;;;;;;;;;5090081;28;20397;-58
2024/01/18 13:38:35;;;;;;;30.25;17.40;;;;;;;;;;5092263;28;20382;-58
2024/01/18 13:41:01;;;;;;;34.08;18.58;;;;;;;;;;5091798;28;20888;-58
2024/01/18 13:43:27;;;;;;;30.35;18.05;;;;;;;;;;5084925;28;20377;-58
2024/01/18 13:45:54;;;;;;;41.08;19.33;;;;;;;;;;5081329;28;20415;-54
2024/01/18 13:48:19;;;;;;;38.90;19.50;;;;;;;;;;5089878;28;20441;-55
2024/01/18 13:50:45;;;;;;;30.05;17.10;;;;;;;;;;5091619;28;20439;-52
2024/01/18 13:53:14;;;;;;;31.38;17.90;;;;;;;;;;5090457;28;20381;-52
2024/01/18 13:55:40;;;;;;;32.42;17.90;;;;;;;;;;5080512;28;20447;-51
2024/01/18 13:58:07;;;;;;;33.80;17.65;;;;;;;;;;5092719;28;20852;-52
2024/01/18 14:00:34;;;;;;;34.55;17.88;;;;;;;;;;5092309;28;20737;-53
2024/01/18 14:03:00;;;;;;;32.08;18.95;;;;;;;;;;5069367;28;20809;-54
2024/01/18 14:05:30;;;;;;;33.38;18.20;;;;;;;;;;5089926;28;20386;-54
2024/01/18 14:07:57;;;;;;;32.90;18.52;;;;;;;;;;5087668;28;20439;-55
2024/01/18 14:10:23;;;;;;;33.60;18.67;;;;;;;;;;5089033;28;20487;-53
2024/01/18 14:12:49;;;;;;;33.80;19.52;;;;;;;;;;5087932;28;20398;-54